Estación Meteorológica Peña el Pijo (Robertgarden) [ 02/02/23 21:26:42 CET ]

Fecha Hora Presion(HPa) Temp (°C) Humedad % Rocio (°C) Viento ( m/s) Direccion Lluvia 1Hora(mm) Lluvia 24H(mm) LLuvia Total(mm)
2012-Apr-10 01:01:12 1002.900 8.9 55 0.3         155.40
2012-Apr-10 02:01:13 1002.400 7.6 61 0.6         155.40
2012-Apr-10 03:01:47 1001.800 7.3 63 0.7         155.40
2012-Apr-10 04:03:46 1000.900 8.4 63 1.7         155.40
2012-Apr-10 05:01:44 1000.600 12.8 47 1.7         155.40
2012-Apr-10 06:05:24 1000.100 11.3 49 1.0         155.40
2012-Apr-10 07:01:14 999.800 8.3 59 0.7         155.40
2012-Apr-10 08:01:14 1000.600 7.3 61 0.3         155.40
2012-Apr-10 09:01:17 1000.700 11.3 51 1.5         155.40
2012-Apr-10 10:01:14 1000.300 14.9 43 2.4 1.1 E     155.40
2012-Apr-10 11:01:14 1000.600 17.2 38 2.7 0.6 ESE     155.40
2012-Apr-10 12:01:16 1000.800 17.4 40 3.7 2.5 SE     155.40
2012-Apr-10 13:01:18 1001.000 15.8 40 2.2 0.9 NE     155.40
2012-Apr-10 14:01:13 1001.000 17.8 35 2.0 2.0 E     155.40
2012-Apr-10 15:01:14 1001.100 17.6 33 1.0 2.8 SE     155.40
2012-Apr-10 16:01:12 1000.000 18.1 31 0.7 0.8 NE     155.40
2012-Apr-10 17:01:11 1000.400 17.8 34 1.6 3.9 SSE     155.40
2012-Apr-10 18:01:12 1000.700 16.0 38 1.6 1.3 SE     155.40
2012-Apr-10 19:01:12 1000.600 15.1 41 1.9         155.40
2012-Apr-10 20:01:20 1000.800 13.3 46 1.8 2.4 ESE     155.40
2012-Apr-10 21:01:13 1001.600 11.9 49 1.5 0.5 SSE     155.40
2012-Apr-10 22:01:14 1002.300 11.7 52 2.1 1.0 ESE     155.40
2012-Apr-10 23:01:14 1003.000 10.9 51 1.2 1.0 E     155.40

Temperatura Máxima:18°    Temperatura Mínima:
Presión Máxima:1003.000 Hpa    Presión Mínima:999.800 Hpa


Volver